sensor_id;sensor_type;location;lat;lon;timestamp;pressure;altitude;pressure_sealevel;temperature;humidity
54236;BME280;40151;43.606;1.472;2023-02-19T00:01:22;100532.25;;;19.58;53.65
54236;BME280;40151;43.606;1.472;2023-02-19T00:04:12;100523.50;;;19.56;53.51
54236;BME280;40151;43.606;1.472;2023-02-19T00:06:38;100523.50;;;19.56;53.40
54236;BME280;40151;43.606;1.472;2023-02-19T00:09:03;100527.06;;;19.55;53.36
54236;BME280;40151;43.606;1.472;2023-02-19T00:11:31;100529.72;;;19.55;53.58
54236;BME280;40151;43.606;1.472;2023-02-19T00:13:58;100521.78;;;19.55;53.55
54236;BME280;40151;43.606;1.472;2023-02-19T00:16:38;100528.00;;;19.54;53.48
54236;BME280;40151;43.606;1.472;2023-02-19T00:19:07;100527.91;;;19.56;53.53
54236;BME280;40151;43.606;1.472;2023-02-19T00:21:33;100524.44;;;19.55;53.49
54236;BME280;40151;43.606;1.472;2023-02-19T00:24:02;100529.72;;;19.55;53.17
54236;BME280;40151;43.606;1.472;2023-02-19T00:26:27;100523.63;;;19.53;53.58
54236;BME280;40151;43.606;1.472;2023-02-19T00:28:54;100527.13;;;19.54;53.16
54236;BME280;40151;43.606;1.472;2023-02-19T00:31:25;100521.88;;;19.52;53.17
54236;BME280;40151;43.606;1.472;2023-02-19T00:33:54;100521.00;;;19.53;53.53
54236;BME280;40151;43.606;1.472;2023-02-19T00:36:20;100520.16;;;19.51;53.54
54236;BME280;40151;43.606;1.472;2023-02-19T00:38:46;100513.16;;;19.50;53.21
54236;BME280;40151;43.606;1.472;2023-02-19T00:41:13;100515.84;;;19.49;53.27
54236;BME280;40151;43.606;1.472;2023-02-19T00:46:28;100516.72;;;19.49;53.39
54236;BME280;40151;43.606;1.472;2023-02-19T00:48:54;100510.56;;;19.49;53.28
54236;BME280;40151;43.606;1.472;2023-02-19T00:51:21;100515.00;;;19.48;53.28
54236;BME280;40151;43.606;1.472;2023-02-19T00:53:47;100509.72;;;19.48;53.25
54236;BME280;40151;43.606;1.472;2023-02-19T00:56:13;100502.69;;;19.47;53.07
54236;BME280;40151;43.606;1.472;2023-02-19T00:58:38;100509.72;;;19.48;53.26
54236;BME280;40151;43.606;1.472;2023-02-19T01:01:05;100505.34;;;19.47;53.36
54236;BME280;40151;43.606;1.472;2023-02-19T01:03:32;100503.59;;;19.46;53.51
54236;BME280;40151;43.606;1.472;2023-02-19T01:05:57;100506.25;;;19.46;53.44
54236;BME280;40151;43.606;1.472;2023-02-19T01:08:23;100505.41;;;19.45;53.36
54236;BME280;40151;43.606;1.472;2023-02-19T01:10:48;100505.41;;;19.45;53.42
54236;BME280;40151;43.606;1.472;2023-02-19T01:13:14;100502.78;;;19.44;53.29
54236;BME280;40151;43.606;1.472;2023-02-19T01:15:39;100506.25;;;19.46;53.21
54236;BME280;40151;43.606;1.472;2023-02-19T01:18:05;100502.78;;;19.44;53.15
54236;BME280;40151;43.606;1.472;2023-02-19T01:20:31;100506.47;;;19.40;53.42
54236;BME280;40151;43.606;1.472;2023-02-19T01:22:56;100510.78;;;19.42;53.13
54236;BME280;40151;43.606;1.472;2023-02-19T01:25:21;100516.13;;;19.41;53.23
54236;BME280;40151;43.606;1.472;2023-02-19T01:27:47;100511.66;;;19.43;53.43
54236;BME280;40151;43.606;1.472;2023-02-19T01:30:12;100512.69;;;19.39;53.48
54236;BME280;40151;43.606;1.472;2023-02-19T01:32:38;100513.47;;;19.41;53.30
54236;BME280;40151;43.606;1.472;2023-02-19T01:35:04;100515.34;;;19.39;53.18
54236;BME280;40151;43.606;1.472;2023-02-19T01:37:30;100518.91;;;19.38;53.18
54236;BME280;40151;43.606;1.472;2023-02-19T01:39:55;100510.03;;;19.39;53.11
54236;BME280;40151;43.606;1.472;2023-02-19T01:42:21;100509.19;;;19.38;53.12
54236;BME280;40151;43.606;1.472;2023-02-19T01:47:14;100507.41;;;19.39;53.07
54236;BME280;40151;43.606;1.472;2023-02-19T01:49:54;100514.41;;;19.40;53.19
54236;BME280;40151;43.606;1.472;2023-02-19T01:52:25;100502.28;;;19.34;53.05
54236;BME280;40151;43.606;1.472;2023-02-19T01:54:55;100510.19;;;19.36;52.99
54236;BME280;40151;43.606;1.472;2023-02-19T01:57:25;100511.91;;;19.37;53.03
54236;BME280;40151;43.606;1.472;2023-02-19T01:59:55;100507.56;;;19.34;53.23
54236;BME280;40151;43.606;1.472;2023-02-19T02:02:23;100504.97;;;19.32;53.17
54236;BME280;40151;43.606;1.472;2023-02-19T02:04:51;100505.78;;;19.35;53.27
54236;BME280;40151;43.606;1.472;2023-02-19T02:07:17;100505.78;;;19.35;53.09
54236;BME280;40151;43.606;1.472;2023-02-19T02:10:01;100501.41;;;19.34;53.08
54236;BME280;40151;43.606;1.472;2023-02-19T02:12:49;100506.69;;;19.34;53.04
54236;BME280;40151;43.606;1.472;2023-02-19T02:15:18;100504.09;;;19.32;53.29
54236;BME280;40151;43.606;1.472;2023-02-19T02:17:54;100505.13;;;19.29;53.26
54236;BME280;40151;43.606;1.472;2023-02-19T02:20:50;100499.81;;;19.29;53.17
54236;BME280;40151;43.606;1.472;2023-02-19T02:26:25;100498.06;;;19.28;53.02
54236;BME280;40151;43.606;1.472;2023-02-19T02:32:25;100496.25;;;19.30;53.21
54236;BME280;40151;43.606;1.472;2023-02-19T02:34:56;100491.94;;;19.28;53.38
54236;BME280;40151;43.606;1.472;2023-02-19T02:37:26;100484.00;;;19.28;53.16
54236;BME280;40151;43.606;1.472;2023-02-19T02:39:56;100491.06;;;19.27;53.06
54236;BME280;40151;43.606;1.472;2023-02-19T02:42:22;100486.75;;;19.25;52.94
54236;BME280;40151;43.606;1.472;2023-02-19T02:44:57;100484.97;;;19.25;52.99
54236;BME280;40151;43.606;1.472;2023-02-19T02:47:49;100482.31;;;19.25;53.02
54236;BME280;40151;43.606;1.472;2023-02-19T02:50:42;100473.47;;;19.26;53.14
54236;BME280;40151;43.606;1.472;2023-02-19T02:53:16;100475.31;;;19.24;53.10
54236;BME280;40151;43.606;1.472;2023-02-19T02:56:02;100479.69;;;19.25;53.13
54236;BME280;40151;43.606;1.472;2023-02-19T02:58:28;100470.03;;;19.24;52.97
54236;BME280;40151;43.606;1.472;2023-02-19T03:01:03;100468.25;;;19.23;53.18
54236;BME280;40151;43.606;1.472;2023-02-19T03:03:53;100484.03;;;19.26;52.75
54236;BME280;40151;43.606;1.472;2023-02-19T03:06:20;100472.72;;;19.23;52.86
54236;BME280;40151;43.606;1.472;2023-02-19T03:08:54;100475.31;;;19.24;53.02
54236;BME280;40151;43.606;1.472;2023-02-19T03:11:20;100468.25;;;19.23;52.82
54236;BME280;40151;43.606;1.472;2023-02-19T03:14:26;100471.84;;;19.22;53.24
54236;BME280;40151;43.606;1.472;2023-02-19T03:17:28;100462.97;;;19.23;53.10
54236;BME280;40151;43.606;1.472;2023-02-19T03:20:20;100469.28;;;19.21;53.06
54236;BME280;40151;43.606;1.472;2023-02-19T03:22:48;100459.59;;;19.19;52.86
54236;BME280;40151;43.606;1.472;2023-02-19T03:25:20;100469.28;;;19.21;52.89
54236;BME280;40151;43.606;1.472;2023-02-19T03:28:08;100468.41;;;19.20;53.23
54236;BME280;40151;43.606;1.472;2023-02-19T03:30:39;100463.97;;;19.21;53.04
54236;BME280;40151;43.606;1.472;2023-02-19T03:33:09;100464.97;;;19.18;52.91
54236;BME280;40151;43.606;1.472;2023-02-19T03:35:43;100468.41;;;19.20;53.12
54236;BME280;40151;43.606;1.472;2023-02-19T03:38:15;100468.41;;;19.20;53.12
54236;BME280;40151;43.606;1.472;2023-02-19T03:40:58;100475.47;;;19.19;52.93
54236;BME280;40151;43.606;1.472;2023-02-19T03:46:05;100475.53;;;19.18;52.94
54236;BME280;40151;43.606;1.472;2023-02-19T03:48:55;100477.38;;;19.16;52.90
54236;BME280;40151;43.606;1.472;2023-02-19T03:51:39;100475.66;;;19.15;52.95
54236;BME280;40151;43.606;1.472;2023-02-19T03:59:41;100472.06;;;19.16;53.15
54236;BME280;40151;43.606;1.472;2023-02-19T04:02:17;100481.81;;;19.15;53.13
54236;BME280;40151;43.606;1.472;2023-02-19T04:07:31;100475.66;;;19.15;53.00
54236;BME280;40151;43.606;1.472;2023-02-19T04:10:00;100472.19;;;19.13;52.92
54236;BME280;40151;43.606;1.472;2023-02-19T04:12:26;100479.25;;;19.12;53.02
54236;BME280;40151;43.606;1.472;2023-02-19T04:15:05;100470.47;;;19.12;52.79
54236;BME280;40151;43.606;1.472;2023-02-19T04:17:44;100472.19;;;19.13;52.87
54236;BME280;40151;43.606;1.472;2023-02-19T04:20:13;100472.34;;;19.08;52.92
54236;BME280;40151;43.606;1.472;2023-02-19T04:22:39;100475.78;;;19.12;52.71
54236;BME280;40151;43.606;1.472;2023-02-19T04:25:06;100468.72;;;19.11;52.92
54236;BME280;40151;43.606;1.472;2023-02-19T04:27:35;100473.22;;;19.09;52.91
54236;BME280;40151;43.606;1.472;2023-02-19T04:30:02;100473.22;;;19.09;53.06
54236;BME280;40151;43.606;1.472;2023-02-19T04:32:28;100477.59;;;19.10;52.97
54236;BME280;40151;43.606;1.472;2023-02-19T04:34:53;100476.66;;;19.11;52.96
54236;BME280;40151;43.606;1.472;2023-02-19T04:37:18;100480.28;;;19.08;52.92
54236;BME280;40151;43.606;1.472;2023-02-19T04:39:44;100475.91;;;19.07;52.83
54236;BME280;40151;43.606;1.472;2023-02-19T04:42:09;100476.78;;;19.08;52.86
54236;BME280;40151;43.606;1.472;2023-02-19T04:44:35;100480.38;;;19.07;52.97
54236;BME280;40151;43.606;1.472;2023-02-19T04:47:00;100476.84;;;19.06;53.02
54236;BME280;40151;43.606;1.472;2023-02-19T04:49:26;100479.53;;;19.04;52.84
54236;BME280;40151;43.606;1.472;2023-02-19T04:51:51;100475.97;;;19.05;53.08
54236;BME280;40151;43.606;1.472;2023-02-19T04:54:17;100471.56;;;19.06;52.95
54236;BME280;40151;43.606;1.472;2023-02-19T04:56:42;100479.44;;;19.08;52.94
54236;BME280;40151;43.606;1.472;2023-02-19T04:59:08;100489.19;;;19.05;52.80
54236;BME280;40151;43.606;1.472;2023-02-19T05:01:34;100483.13;;;19.03;53.03
54236;BME280;40151;43.606;1.472;2023-02-19T05:03:59;100493.69;;;19.03;52.85
54236;BME280;40151;43.606;1.472;2023-02-19T05:06:25;100490.13;;;19.04;52.71
54236;BME280;40151;43.606;1.472;2023-02-19T05:08:50;100496.34;;;19.03;52.89
54236;BME280;40151;43.606;1.472;2023-02-19T05:11:15;100497.31;;;18.99;53.15
54236;BME280;40151;43.606;1.472;2023-02-19T05:13:41;100506.09;;;19.01;52.73
54236;BME280;40151;43.606;1.472;2023-02-19T05:16:10;100510.44;;;19.04;52.62
54236;BME280;40151;43.606;1.472;2023-02-19T05:18:38;100515.72;;;19.04;52.84
54236;BME280;40151;43.606;1.472;2023-02-19T05:21:04;100512.22;;;19.02;52.92
54236;BME280;40151;43.606;1.472;2023-02-19T05:23:30;100512.22;;;19.02;52.75
54236;BME280;40151;43.606;1.472;2023-02-19T05:25:55;100513.09;;;19.02;52.92
54236;BME280;40151;43.606;1.472;2023-02-19T05:28:21;100508.81;;;18.98;52.96
54236;BME280;40151;43.606;1.472;2023-02-19T05:30:53;100516.72;;;19.00;52.80
54236;BME280;40151;43.606;1.472;2023-02-19T05:33:20;100514.13;;;18.98;52.87
54236;BME280;40151;43.606;1.472;2023-02-19T05:35:51;100517.72;;;18.96;52.90
54236;BME280;40151;43.606;1.472;2023-02-19T05:38:18;100520.34;;;18.97;52.98
54236;BME280;40151;43.606;1.472;2023-02-19T05:40:45;100516.88;;;18.95;53.01
54236;BME280;40151;43.606;1.472;2023-02-19T05:43:11;100514.16;;;18.97;52.71
54236;BME280;40151;43.606;1.472;2023-02-19T05:45:38;100515.03;;;18.97;52.68
54236;BME280;40151;43.606;1.472;2023-02-19T05:48:04;100509.75;;;18.97;52.81
54236;BME280;40151;43.606;1.472;2023-02-19T05:50:31;100510.69;;;18.96;53.06
54236;BME280;40151;43.606;1.472;2023-02-19T05:53:02;100515.16;;;18.94;52.80
54236;BME280;40151;43.606;1.472;2023-02-19T05:55:28;100518.72;;;18.93;52.72
54236;BME280;40151;43.606;1.472;2023-02-19T05:57:54;100524.81;;;18.95;52.98
54236;BME280;40151;43.606;1.472;2023-02-19T06:00:20;100515.16;;;18.94;52.88
54236;BME280;40151;43.606;1.472;2023-02-19T06:02:46;100515.16;;;18.94;53.01
54236;BME280;40151;43.606;1.472;2023-02-19T06:05:12;100517.72;;;18.96;52.60
54236;BME280;40151;43.606;1.472;2023-02-19T06:07:38;100515.97;;;18.96;52.87
54236;BME280;40151;43.606;1.472;2023-02-19T06:10:07;100514.28;;;18.94;52.94
54236;BME280;40151;43.606;1.472;2023-02-19T06:12:32;100518.72;;;18.93;52.81
54236;BME280;40151;43.606;1.472;2023-02-19T06:14:58;100509.06;;;18.92;52.79
54236;BME280;40151;43.606;1.472;2023-02-19T06:17:23;100520.56;;;18.91;52.79
54236;BME280;40151;43.606;1.472;2023-02-19T06:19:49;100517.91;;;18.91;52.84
54236;BME280;40151;43.606;1.472;2023-02-19T06:22:15;100519.81;;;18.87;52.71
54236;BME280;40151;43.606;1.472;2023-02-19T06:24:40;100528.56;;;18.88;52.83
54236;BME280;40151;43.606;1.472;2023-02-19T06:27:07;100522.41;;;18.89;52.66
54236;BME280;40151;43.606;1.472;2023-02-19T06:29:33;100531.22;;;18.88;52.51
54236;BME280;40151;43.606;1.472;2023-02-19T06:31:59;100527.72;;;18.87;52.61
54236;BME280;40151;43.606;1.472;2023-02-19T06:34:25;100533.88;;;18.88;52.71
54236;BME280;40151;43.606;1.472;2023-02-19T06:36:50;100540.09;;;18.87;52.60
54236;BME280;40151;43.606;1.472;2023-02-19T06:39:16;100540.09;;;18.87;52.73
54236;BME280;40151;43.606;1.472;2023-02-19T06:41:41;100537.50;;;18.85;52.59
54236;BME280;40151;43.606;1.472;2023-02-19T06:44:07;100539.22;;;18.86;52.86
54236;BME280;40151;43.606;1.472;2023-02-19T06:46:33;100543.66;;;18.86;52.47
54236;BME280;40151;43.606;1.472;2023-02-19T06:48:58;100544.56;;;18.85;52.73
54236;BME280;40151;43.606;1.472;2023-02-19T06:51:24;100548.00;;;18.87;52.75
54236;BME280;40151;43.606;1.472;2023-02-19T06:53:53;100547.22;;;18.85;52.81
54236;BME280;40151;43.606;1.472;2023-02-19T06:56:30;100545.38;;;18.87;52.61
54236;BME280;40151;43.606;1.472;2023-02-19T06:58:58;100549.84;;;18.85;52.49
54236;BME280;40151;43.606;1.472;2023-02-19T07:01:25;100545.50;;;18.84;52.44
54236;BME280;40151;43.606;1.472;2023-02-19T07:03:51;100550.66;;;18.87;52.71
54236;BME280;40151;43.606;1.472;2023-02-19T07:06:17;100548.13;;;18.84;52.67
54236;BME280;40151;43.606;1.472;2023-02-19T07:08:42;100548.09;;;18.85;52.67
54236;BME280;40151;43.606;1.472;2023-02-19T07:11:08;100556.88;;;18.86;52.58
54236;BME280;40151;43.606;1.472;2023-02-19T07:13:33;100564.81;;;18.86;52.44
54236;BME280;40151;43.606;1.472;2023-02-19T07:16:04;100563.09;;;18.85;52.56
54236;BME280;40151;43.606;1.472;2023-02-19T07:18:32;100571.00;;;18.85;52.26
54236;BME280;40151;43.606;1.472;2023-02-19T07:21:05;100579.91;;;18.82;52.50
54236;BME280;40151;43.606;1.472;2023-02-19T07:23:31;100591.38;;;18.83;52.70
54236;BME280;40151;43.606;1.472;2023-02-19T07:25:57;100598.47;;;18.81;52.67
54236;BME280;40151;43.606;1.472;2023-02-19T07:28:22;100595.81;;;18.81;52.71
54236;BME280;40151;43.606;1.472;2023-02-19T07:30:48;100602.78;;;18.83;52.29
54236;BME280;40151;43.606;1.472;2023-02-19T07:33:13;100607.25;;;18.83;52.23
54236;BME280;40151;43.606;1.472;2023-02-19T07:35:49;100603.75;;;18.81;52.70
54236;BME280;40151;43.606;1.472;2023-02-19T07:38:19;100601.06;;;18.82;52.41
54236;BME280;40151;43.606;1.472;2023-02-19T07:43:17;100599.34;;;18.81;52.65
54236;BME280;40151;43.606;1.472;2023-02-19T07:45:43;100597.66;;;18.78;52.74
54236;BME280;40151;43.606;1.472;2023-02-19T07:48:09;100602.91;;;18.80;52.79
54236;BME280;40151;43.606;1.472;2023-02-19T07:50:34;100610.88;;;18.78;52.74
54236;BME280;40151;43.606;1.472;2023-02-19T07:52:59;100615.25;;;18.79;52.56
54236;BME280;40151;43.606;1.472;2023-02-19T07:55:25;100617.91;;;18.79;52.69
54236;BME280;40151;43.606;1.472;2023-02-19T07:57:50;100616.19;;;18.78;52.84
54236;BME280;40151;43.606;1.472;2023-02-19T08:00:16;100623.19;;;18.79;52.70
54236;BME280;40151;43.606;1.472;2023-02-19T08:02:43;100617.91;;;18.79;52.73
54236;BME280;40151;43.606;1.472;2023-02-19T08:05:24;100624.91;;;18.81;52.36
54236;BME280;40151;43.606;1.472;2023-02-19T08:07:50;100629.28;;;18.82;52.82
54236;BME280;40151;43.606;1.472;2023-02-19T08:10:15;100626.75;;;18.78;52.55
54236;BME280;40151;43.606;1.472;2023-02-19T08:12:59;100638.97;;;18.83;52.70
54236;BME280;40151;43.606;1.472;2023-02-19T08:15:45;100631.94;;;18.82;52.78
54236;BME280;40151;43.606;1.472;2023-02-19T08:18:11;100629.41;;;18.78;52.61
54236;BME280;40151;43.606;1.472;2023-02-19T08:20:37;100638.19;;;18.79;52.72
54236;BME280;40151;43.606;1.472;2023-02-19T08:23:03;100642.56;;;18.80;52.73
54236;BME280;40151;43.606;1.472;2023-02-19T08:25:29;100639.84;;;18.82;52.50
54236;BME280;40151;43.606;1.472;2023-02-19T08:27:54;100645.22;;;18.80;52.53
54236;BME280;40151;43.606;1.472;2023-02-19T08:30:20;100641.69;;;18.79;52.72
54236;BME280;40151;43.606;1.472;2023-02-19T08:32:45;100651.34;;;18.81;52.85
54236;BME280;40151;43.606;1.472;2023-02-19T08:35:11;100646.06;;;18.81;52.65
54236;BME280;40151;43.606;1.472;2023-02-19T08:37:37;100644.25;;;18.83;52.70
54236;BME280;40151;43.606;1.472;2023-02-19T08:40:03;100635.50;;;18.81;52.72
54236;BME280;40151;43.606;1.472;2023-02-19T08:42:29;100633.81;;;18.78;52.64
54236;BME280;40151;43.606;1.472;2023-02-19T08:44:54;100640.78;;;18.81;52.56
54236;BME280;40151;43.606;1.472;2023-02-19T08:47:20;100641.66;;;18.81;52.56
54236;BME280;40151;43.606;1.472;2023-02-19T08:49:45;100631.94;;;18.82;52.85
54236;BME280;40151;43.606;1.472;2023-02-19T08:52:11;100638.84;;;18.86;52.88
54236;BME280;40151;43.606;1.472;2023-02-19T08:54:36;100638.84;;;18.86;52.74
54236;BME280;40151;43.606;1.472;2023-02-19T08:57:02;100643.28;;;18.85;52.68
54236;BME280;40151;43.606;1.472;2023-02-19T08:59:29;100646.75;;;18.87;52.64
54236;BME280;40151;43.606;1.472;2023-02-19T09:01:54;100639.72;;;18.86;52.75
54236;BME280;40151;43.606;1.472;2023-02-19T09:04:20;100639.56;;;18.91;52.54
54236;BME280;40151;43.606;1.472;2023-02-19T09:06:45;100644.84;;;18.91;52.65
54236;BME280;40151;43.606;1.472;2023-02-19T09:09:11;100646.63;;;18.90;52.64
54236;BME280;40151;43.606;1.472;2023-02-19T09:11:39;100655.34;;;18.94;52.62
54236;BME280;40151;43.606;1.472;2023-02-19T09:14:05;100649.97;;;18.96;52.56
54236;BME280;40151;43.606;1.472;2023-02-19T09:16:33;100666.72;;;18.96;52.60
54236;BME280;40151;43.606;1.472;2023-02-19T09:18:59;100668.44;;;18.97;52.40
54236;BME280;40151;43.606;1.472;2023-02-19T09:21:24;100672.03;;;18.96;52.11
54236;BME280;40151;43.606;1.472;2023-02-19T09:23:50;100673.66;;;19.00;52.41
54236;BME280;40151;43.606;1.472;2023-02-19T09:26:17;100673.66;;;19.00;52.35
54236;BME280;40151;43.606;1.472;2023-02-19T09:28:42;100682.41;;;19.02;52.51
54236;BME280;40151;43.606;1.472;2023-02-19T09:31:10;100685.03;;;19.02;52.54
54236;BME280;40151;43.606;1.472;2023-02-19T09:33:36;100687.69;;;19.04;52.39
54236;BME280;40151;43.606;1.472;2023-02-19T09:36:02;100682.41;;;19.02;52.31
54236;BME280;40151;43.606;1.472;2023-02-19T09:38:28;100683.19;;;19.06;52.19
54236;BME280;40151;43.606;1.472;2023-02-19T09:40:58;100695.50;;;19.07;52.42
54236;BME280;40151;43.606;1.472;2023-02-19T09:43:30;100697.28;;;19.07;52.23
54236;BME280;40151;43.606;1.472;2023-02-19T09:48:46;100698.09;;;19.09;52.52
54236;BME280;40151;43.606;1.472;2023-02-19T09:51:11;100692.81;;;19.09;52.25
54236;BME280;40151;43.606;1.472;2023-02-19T09:53:43;100702.41;;;19.11;52.41
54236;BME280;40151;43.606;1.472;2023-02-19T09:56:11;100701.53;;;19.11;52.22
54236;BME280;40151;43.606;1.472;2023-02-19T09:58:45;100696.22;;;19.12;52.33
54236;BME280;40151;43.606;1.472;2023-02-19T10:01:12;100705.03;;;19.13;52.34
54236;BME280;40151;43.606;1.472;2023-02-19T10:03:39;100701.47;;;19.14;52.17
54236;BME280;40151;43.606;1.472;2023-02-19T10:08:38;100703.19;;;19.15;52.11
54236;BME280;40151;43.606;1.472;2023-02-19T10:11:04;100708.38;;;19.18;52.32
54236;BME280;40151;43.606;1.472;2023-02-19T10:13:36;100706.63;;;19.17;52.18
54236;BME280;40151;43.606;1.472;2023-02-19T10:16:06;100709.34;;;19.15;52.37
54236;BME280;40151;43.606;1.472;2023-02-19T10:18:40;100710.19;;;19.16;52.25
54236;BME280;40151;43.606;1.472;2023-02-19T10:21:11;100718.97;;;19.18;52.50
54236;BME280;40151;43.606;1.472;2023-02-19T10:23:39;100711.06;;;19.16;52.40
54236;BME280;40151;43.606;1.472;2023-02-19T10:26:05;100710.16;;;19.17;52.65
54236;BME280;40151;43.606;1.472;2023-02-19T10:28:35;100706.63;;;19.17;52.21
54236;BME280;40151;43.606;1.472;2023-02-19T10:31:03;100707.50;;;19.17;52.44
54236;BME280;40151;43.606;1.472;2023-02-19T10:33:29;100703.00;;;19.19;52.47
54236;BME280;40151;43.606;1.472;2023-02-19T10:36:05;100710.09;;;19.19;52.70
54236;BME280;40151;43.606;1.472;2023-02-19T10:38:44;100694.22;;;19.19;52.31
54236;BME280;40151;43.606;1.472;2023-02-19T10:41:17;100705.56;;;19.23;52.60
54236;BME280;40151;43.606;1.472;2023-02-19T10:46:27;100699.31;;;19.25;52.52
54236;BME280;40151;43.606;1.472;2023-02-19T10:49:03;100698.34;;;19.28;52.46
54236;BME280;40151;43.606;1.472;2023-02-19T10:51:35;100701.78;;;19.30;52.22
54236;BME280;40151;43.606;1.472;2023-02-19T10:56:42;100700.81;;;19.32;52.16
54236;BME280;40151;43.606;1.472;2023-02-19T10:59:27;100702.53;;;19.34;52.25
54236;BME280;40151;43.606;1.472;2023-02-19T11:01:57;100699.91;;;19.34;52.26
54236;BME280;40151;43.606;1.472;2023-02-19T11:04:25;100699.84;;;19.35;52.25
54236;BME280;40151;43.606;1.472;2023-02-19T11:06:51;100705.09;;;19.37;52.19
54236;BME280;40151;43.606;1.472;2023-02-19T11:11:51;100712.91;;;19.40;52.36
54236;BME280;40151;43.606;1.472;2023-02-19T11:14:19;100708.47;;;19.42;52.30
54236;BME280;40151;43.606;1.472;2023-02-19T11:16:49;100708.38;;;19.43;52.09
54236;BME280;40151;43.606;1.472;2023-02-19T11:19:43;100707.41;;;19.46;52.31
54236;BME280;40151;43.606;1.472;2023-02-19T11:24:52;100705.59;;;19.48;52.57
54236;BME280;40151;43.606;1.472;2023-02-19T11:27:21;100691.44;;;19.49;52.45
54236;BME280;40151;43.606;1.472;2023-02-19T11:29:47;100687.88;;;19.50;52.15
54236;BME280;40151;43.606;1.472;2023-02-19T11:34:45;100687.81;;;19.52;52.21
54236;BME280;40151;43.606;1.472;2023-02-19T11:37:16;100685.97;;;19.54;52.32
54236;BME280;40151;43.606;1.472;2023-02-19T11:39:44;100680.63;;;19.55;52.27
54236;BME280;40151;43.606;1.472;2023-02-19T11:47:48;100675.22;;;19.58;52.51
54236;BME280;40151;43.606;1.472;2023-02-19T11:50:05;100661.06;;;19.59;52.37
54236;BME280;40151;43.606;1.472;2023-02-19T11:55:16;100651.25;;;19.63;52.21
54236;BME280;40151;43.606;1.472;2023-02-19T11:57:46;100650.34;;;19.63;52.22
54236;BME280;40151;43.606;1.472;2023-02-19T12:00:29;100653.81;;;19.65;52.32
54236;BME280;40151;43.606;1.472;2023-02-19T12:11:31;100625.38;;;19.70;52.26
54236;BME280;40151;43.606;1.472;2023-02-19T12:19:23;100610.31;;;19.72;52.23
54236;BME280;40151;43.606;1.472;2023-02-19T12:35:13;100583.59;;;19.78;52.26
54236;BME280;40151;43.606;1.472;2023-02-19T12:43:36;100567.66;;;19.80;52.23
54236;BME280;40151;43.606;1.472;2023-02-19T12:46:14;100568.44;;;19.82;52.17
54236;BME280;40151;43.606;1.472;2023-02-19T12:51:18;100566.53;;;19.85;52.17
54236;BME280;40151;43.606;1.472;2023-02-19T12:56:27;100560.31;;;19.86;52.10
54236;BME280;40151;43.606;1.472;2023-02-19T12:58:59;100557.66;;;19.86;52.30
54236;BME280;40151;43.606;1.472;2023-02-19T13:01:31;100543.50;;;19.88;52.26
54236;BME280;40151;43.606;1.472;2023-02-19T13:09:27;100537.22;;;19.90;52.24
54236;BME280;40151;43.606;1.472;2023-02-19T13:14:44;100528.28;;;19.93;52.28
54236;BME280;40151;43.606;1.472;2023-02-19T13:17:49;100519.34;;;19.95;52.22
54236;BME280;40151;43.606;1.472;2023-02-19T13:20:29;100519.34;;;19.95;52.13
54236;BME280;40151;43.606;1.472;2023-02-19T13:28:30;100508.69;;;19.98;52.26
54236;BME280;40151;43.606;1.472;2023-02-19T13:31:19;100493.63;;;19.99;52.36
54236;BME280;40151;43.606;1.472;2023-02-19T13:34:04;100500.66;;;20.00;52.36
54236;BME280;40151;43.606;1.472;2023-02-19T13:36:36;100489.06;;;20.03;52.31
54236;BME280;40151;43.606;1.472;2023-02-19T13:39:05;100484.66;;;20.03;52.12
54236;BME280;40151;43.606;1.472;2023-02-19T13:41:37;100484.66;;;20.03;52.31
54236;BME280;40151;43.606;1.472;2023-02-19T13:44:06;100487.25;;;20.05;52.26
54236;BME280;40151;43.606;1.472;2023-02-19T13:46:37;100477.50;;;20.05;52.09
54236;BME280;40151;43.606;1.472;2023-02-19T13:54:26;100470.34;;;20.07;52.21
54236;BME280;40151;43.606;1.472;2023-02-19T13:59:42;100474.66;;;20.10;52.21
54236;BME280;40151;43.606;1.472;2023-02-19T14:02:13;100472.88;;;20.10;52.25
54236;BME280;40151;43.606;1.472;2023-02-19T14:05:02;100461.34;;;20.11;52.16
54236;BME280;40151;43.606;1.472;2023-02-19T14:08:01;100462.09;;;20.15;52.12
54236;BME280;40151;43.606;1.472;2023-02-19T14:10:56;100460.34;;;20.14;52.15
54236;BME280;40151;43.606;1.472;2023-02-19T14:19:02;100443.47;;;20.17;52.32
54236;BME280;40151;43.606;1.472;2023-02-19T14:21:46;100448.75;;;20.17;52.14
54236;BME280;40151;43.606;1.472;2023-02-19T14:24:13;100446.94;;;20.19;52.43
54236;BME280;40151;43.606;1.472;2023-02-19T14:26:39;100440.69;;;20.20;52.28
54236;BME280;40151;43.606;1.472;2023-02-19T14:29:11;100433.59;;;20.20;52.30
54236;BME280;40151;43.606;1.472;2023-02-19T14:31:39;100440.63;;;20.21;52.17
54236;BME280;40151;43.606;1.472;2023-02-19T14:34:19;100436.19;;;20.22;52.29
54236;BME280;40151;43.606;1.472;2023-02-19T14:36:52;100437.00;;;20.24;52.11
54236;BME280;40151;43.606;1.472;2023-02-19T14:39:28;100437.91;;;20.23;52.20
54236;BME280;40151;43.606;1.472;2023-02-19T14:42:14;100438.72;;;20.25;52.12
54236;BME280;40151;43.606;1.472;2023-02-19T14:44:53;100430.75;;;20.25;52.05
54236;BME280;40151;43.606;1.472;2023-02-19T14:47:23;100434.19;;;20.27;52.32
54236;BME280;40151;43.606;1.472;2023-02-19T14:52:29;100430.63;;;20.28;52.52
54236;BME280;40151;43.606;1.472;2023-02-19T14:55:16;100432.34;;;20.29;52.23
54236;BME280;40151;43.606;1.472;2023-02-19T14:57:46;100428.78;;;20.30;52.49
54236;BME280;40151;43.606;1.472;2023-02-19T15:02:50;100417.19;;;20.33;52.41
54236;BME280;40151;43.606;1.472;2023-02-19T15:05:23;100416.31;;;20.32;52.28
54236;BME280;40151;43.606;1.472;2023-02-19T15:07:52;100420.75;;;20.32;52.33